Time;durP1;ratioP1;P1;durP2;ratioP2;P2;SDS_P1;SDS_P2;PMS_P1;PMS_P2;Temp;Humidity;BMP_temperature;BMP_pressure;BME280_temperature;BME280_humidity;BME280_pressure;Samples;Min_cycle;Max_cycle;Signal;HPM_P1;HPM_P2
2023/03/23 00:01:02;;;;;;;3.90;1.80;;;17.40;63.20;18.60;99720.00;;;;5008087;28;20732;-48
2023/03/23 00:03:28;;;;;;;3.53;1.97;;;17.40;63.20;18.60;99697.00;;;;5007942;28;20626;-48
2023/03/23 00:05:59;;;;;;;3.73;2.00;;;17.40;63.20;18.60;99703.00;;;;5008162;28;20287;-49
2023/03/23 00:08:25;;;;;;;3.13;1.83;;;17.40;63.20;18.40;99699.00;;;;5008207;28;20182;-48
2023/03/23 00:10:52;;;;;;;3.40;2.00;;;17.30;63.10;18.60;99698.00;;;;5008286;28;20938;-48
2023/03/23 00:13:20;;;;;;;6.03;2.07;;;17.30;63.10;18.60;99695.00;;;;5015171;28;20193;-49
2023/03/23 00:15:48;;;;;;;2.60;1.90;;;17.30;63.10;18.60;99689.00;;;;5010133;28;20213;-47
2023/03/23 00:18:21;;;;;;;3.23;1.80;;;17.30;64.00;18.60;99688.00;;;;5017242;28;20256;-48
2023/03/23 00:20:52;;;;;;;3.53;1.90;;;17.30;63.20;18.60;99692.00;;;;5010370;28;20230;-48
2023/03/23 00:23:18;;;;;;;2.40;1.90;;;17.30;63.30;18.60;99690.00;;;;5011346;28;20605;-48
2023/03/23 00:25:53;;;;;;;3.17;1.73;;;17.30;63.30;18.60;99697.00;;;;5010471;28;20178;-48
2023/03/23 00:28:24;;;;;;;2.30;1.83;;;17.30;63.30;18.60;99691.00;;;;5011778;28;20181;-48
2023/03/23 00:31:03;;;;;;;2.43;1.80;;;17.30;63.30;18.60;99682.00;;;;5011547;28;20325;-48
2023/03/23 00:33:33;;;;;;;2.73;1.70;;;17.30;63.30;18.50;99684.00;;;;5011374;28;20190;-49
2023/03/23 00:35:59;;;;;;;2.03;1.83;;;17.30;63.30;18.50;99666.00;;;;5011118;28;20175;-49
2023/03/23 00:38:24;;;;;;;2.10;1.70;;;17.30;63.30;18.50;99677.00;;;;5010047;28;20192;-48
2023/03/23 00:40:50;;;;;;;2.67;1.87;;;17.30;63.30;18.50;99686.00;;;;4993563;28;20302;-49
2023/03/23 00:43:17;;;;;;;3.17;1.77;;;17.30;63.30;18.50;99682.00;;;;5011311;28;20216;-48
2023/03/23 00:45:52;;;;;;;3.57;1.80;;;17.30;63.40;18.50;99677.00;;;;5011325;28;20221;-48
2023/03/23 00:48:24;;;;;;;2.23;1.67;;;17.30;63.30;18.50;99679.00;;;;5011330;28;20181;-48
2023/03/23 00:50:51;;;;;;;2.90;2.00;;;17.20;63.30;18.50;99683.00;;;;5011152;28;20216;-47
2023/03/23 00:53:17;;;;;;;3.13;1.70;;;17.20;63.30;18.50;99688.00;;;;5011073;28;20823;-49
2023/03/23 00:55:43;;;;;;;2.30;1.80;;;17.20;63.30;18.50;99670.00;;;;5010084;28;20189;-48
2023/03/23 00:58:10;;;;;;;2.00;1.80;;;17.30;63.40;18.50;99677.00;;;;5011076;28;20594;-48
2023/03/23 01:00:36;;;;;;;2.43;1.73;;;17.20;63.40;18.30;99667.00;;;;5010627;28;20253;-48
2023/03/23 01:03:01;;;;;;;2.03;1.60;;;17.20;63.30;18.50;99663.00;;;;5010809;28;20261;-48
2023/03/23 01:05:31;;;;;;;3.13;2.17;;;17.20;63.40;18.50;99676.00;;;;5010968;28;20647;-48
2023/03/23 01:07:58;;;;;;;2.67;1.70;;;17.20;63.40;18.50;99666.00;;;;5011111;28;20276;-47
2023/03/23 01:10:26;;;;;;;2.00;1.47;;;17.30;63.50;18.40;99654.00;;;;5010697;28;20209;-47
2023/03/23 01:12:51;;;;;;;2.00;1.50;;;17.20;63.40;18.40;99645.00;;;;5010853;28;20179;-48
2023/03/23 01:15:17;;;;;;;1.90;1.70;;;17.20;63.50;18.50;99650.00;;;;5010843;28;20179;-47
2023/03/23 01:17:43;;;;;;;2.90;1.80;;;17.20;63.50;18.40;99652.00;;;;5011140;28;20185;-48
2023/03/23 01:20:10;;;;;;;2.07;1.60;;;17.20;63.40;18.40;99652.00;;;;5010421;28;20244;-48
2023/03/23 01:22:37;;;;;;;2.20;1.77;;;17.20;63.60;18.40;99654.00;;;;5010542;28;20288;-48
2023/03/23 01:25:04;;;;;;;2.40;1.80;;;17.20;63.60;18.40;99652.00;;;;5008309;28;20582;-49
2023/03/23 01:27:30;;;;;;;1.97;1.70;;;17.20;63.70;18.40;99653.00;;;;5010290;28;20176;-48
2023/03/23 01:29:56;;;;;;;2.07;1.73;;;17.10;63.40;18.40;99649.00;;;;5010414;28;20194;-49
2023/03/23 01:32:21;;;;;;;2.70;1.90;;;17.20;63.70;18.40;99646.00;;;;5010282;28;20189;-48
2023/03/23 01:34:47;;;;;;;1.73;1.60;;;17.10;63.50;18.40;99648.00;;;;5009944;28;20184;-47
2023/03/23 01:37:13;;;;;;;1.80;1.50;;;17.10;63.50;18.40;99652.00;;;;5010130;28;20203;-48
2023/03/23 01:39:39;;;;;;;1.63;1.40;;;17.20;63.70;18.40;99649.00;;;;5010553;28;20703;-48
2023/03/23 01:42:05;;;;;;;2.73;1.77;;;17.10;63.60;18.40;99654.00;;;;5013672;28;20233;-47
2023/03/23 01:44:30;;;;;;;1.80;1.70;;;17.10;63.60;18.40;99650.00;;;;5011348;28;20264;-48
2023/03/23 01:46:56;;;;;;;2.80;1.70;;;17.10;63.60;18.40;99649.00;;;;5010759;28;20172;-48
2023/03/23 01:49:33;;;;;;;2.97;1.83;;;17.10;63.60;18.30;99650.00;;;;5010382;28;20207;-47
2023/03/23 01:52:08;;;;;;;2.23;1.70;;;17.10;63.60;18.30;99640.00;;;;5008750;28;20179;-47
2023/03/23 01:54:34;;;;;;;1.80;1.70;;;17.10;63.60;18.30;99627.00;;;;5008912;28;20192;-48
2023/03/23 01:57:17;;;;;;;2.40;1.80;;;17.10;63.60;18.30;99626.00;;;;5009594;28;20182;-47
2023/03/23 01:59:45;;;;;;;2.17;1.40;;;17.00;63.50;18.30;99620.00;;;;5009193;28;20567;-47
2023/03/23 02:02:12;;;;;;;1.87;1.70;;;17.10;63.60;18.30;99619.00;;;;5009954;28;20257;-48
2023/03/23 02:04:38;;;;;;;2.43;1.57;;;17.00;63.50;18.30;99639.00;;;;5008542;28;20802;-48
2023/03/23 02:07:03;;;;;;;2.10;1.53;;;17.00;63.50;18.30;99641.00;;;;5008555;28;20259;-47
2023/03/23 02:09:30;;;;;;;1.93;1.50;;;17.00;63.50;18.30;99631.00;;;;5008283;28;20207;-48
2023/03/23 02:11:55;;;;;;;1.60;1.50;;;17.10;63.70;18.30;99632.00;;;;5009301;28;20197;-48
2023/03/23 02:14:22;;;;;;;1.53;1.43;;;17.00;64.30;18.30;99642.00;;;;4988774;28;20206;-48
2023/03/23 02:16:51;;;;;;;1.50;1.40;;;17.00;63.50;18.30;99633.00;;;;4991601;28;20181;-48
2023/03/23 02:19:48;;;;;;;1.63;1.40;;;17.00;63.60;18.30;99603.00;;;;5009422;28;20184;-49
2023/03/23 02:22:56;;;;;;;1.70;1.60;;;17.00;63.50;18.30;99614.00;;;;5008087;28;20184;-47
2023/03/23 02:25:49;;;;;;;2.23;1.87;;;17.00;63.50;18.20;99601.00;;;;5008245;28;20194;-48
2023/03/23 02:28:21;;;;;;;1.70;1.60;;;17.00;63.50;18.20;99594.00;;;;5009619;28;20263;-48
2023/03/23 02:31:02;;;;;;;2.03;1.70;;;17.00;63.60;18.20;99582.00;;;;5009312;28;20193;-47
2023/03/23 02:34:06;;;;;;;2.90;1.60;;;17.00;63.50;18.20;99579.00;;;;5008105;28;20172;-48
2023/03/23 02:36:43;;;;;;;1.60;1.50;;;17.00;63.70;18.00;99561.00;;;;5007515;28;20185;-47
2023/03/23 02:39:23;;;;;;;1.53;1.40;;;17.00;63.60;18.20;99550.00;;;;5008127;28;20199;-48
2023/03/23 02:41:55;;;;;;;2.07;1.40;;;17.00;63.70;18.20;99561.00;;;;5007746;28;20225;-48
2023/03/23 02:44:22;;;;;;;1.77;1.67;;;17.00;63.70;18.20;99556.00;;;;5008250;28;20178;-48
2023/03/23 02:46:48;;;;;;;1.87;1.57;;;17.00;63.60;18.20;99568.00;;;;5007899;28;20181;-48
2023/03/23 02:49:15;;;;;;;3.97;1.80;;;17.00;63.70;18.20;99565.00;;;;5008058;28;20180;-48
2023/03/23 02:51:41;;;;;;;1.80;1.60;;;17.00;63.90;18.20;99551.00;;;;5007609;28;20841;-48
2023/03/23 02:54:06;;;;;;;1.57;1.47;;;17.00;63.90;18.20;99545.00;;;;5007410;28;20181;-48
2023/03/23 02:56:32;;;;;;;1.73;1.40;;;17.00;63.90;18.20;99563.00;;;;5007755;28;20269;-47
2023/03/23 02:58:58;;;;;;;1.80;1.67;;;17.00;63.90;18.20;99557.00;;;;5007644;28;20178;-48
2023/03/23 03:01:32;;;;;;;1.80;1.70;;;17.00;63.90;18.20;99581.00;;;;5007701;28;20245;-47
2023/03/23 03:04:00;;;;;;;1.73;1.30;;;16.90;63.80;18.20;99582.00;;;;5008819;28;20565;-47
2023/03/23 03:06:56;;;;;;;1.67;1.57;;;16.90;63.90;18.20;99578.00;;;;5007581;28;20249;-46
2023/03/23 03:09:39;;;;;;;1.67;1.50;;;16.90;63.90;18.20;99571.00;;;;5007902;28;20570;-48
2023/03/23 03:12:12;;;;;;;1.60;1.50;;;16.90;63.90;18.20;99581.00;;;;5007578;28;20256;-47
2023/03/23 03:14:42;;;;;;;2.33;1.60;;;16.90;63.90;18.20;99571.00;;;;5007646;28;20193;-47
2023/03/23 03:17:20;;;;;;;1.60;1.50;;;16.90;63.90;18.20;99577.00;;;;5008631;28;20183;-48
2023/03/23 03:19:48;;;;;;;1.60;1.50;;;16.90;63.90;18.10;99576.00;;;;5007465;28;20925;-48
2023/03/23 03:22:14;;;;;;;1.60;1.50;;;16.90;63.90;18.10;99570.00;;;;5007586;28;20236;-48
2023/03/23 03:24:40;;;;;;;1.50;1.40;;;16.90;63.90;18.10;99569.00;;;;5007386;28;20191;-48
2023/03/23 03:27:10;;;;;;;1.50;1.40;;;16.90;63.90;18.10;99569.00;;;;5007594;28;20181;-48
2023/03/23 03:29:41;;;;;;;1.70;1.60;;;16.90;63.80;18.10;99572.00;;;;5007104;28;20222;-48
2023/03/23 03:32:08;;;;;;;1.70;1.60;;;16.90;63.80;18.10;99578.00;;;;5007372;28;20210;-48
2023/03/23 03:34:34;;;;;;;1.40;1.30;;;16.90;63.90;18.10;99567.00;;;;5007392;28;20199;-48
2023/03/23 03:37:00;;;;;;;1.50;1.40;;;16.90;63.90;18.10;99573.00;;;;5007520;28;20180;-48
2023/03/23 03:39:26;;;;;;;1.77;1.67;;;16.90;64.00;18.10;99573.00;;;;5007376;28;20666;-47
2023/03/23 03:41:52;;;;;;;1.90;1.40;;;16.90;64.00;18.10;99588.00;;;;5007402;28;20186;-48
2023/03/23 03:44:18;;;;;;;1.47;1.37;;;16.90;64.00;18.10;99588.00;;;;5009470;28;20553;-48
2023/03/23 03:46:43;;;;;;;1.60;1.50;;;16.80;63.90;18.10;99576.00;;;;5008761;28;20184;-48
2023/03/23 03:49:11;;;;;;;1.40;1.30;;;16.80;63.90;18.10;99592.00;;;;5012270;28;20178;-48
2023/03/23 03:51:37;;;;;;;1.33;1.30;;;16.90;64.00;18.10;99602.00;;;;5011107;28;20796;-48
2023/03/23 03:54:03;;;;;;;1.80;1.70;;;16.80;63.90;18.10;99598.00;;;;5012242;28;20176;-48
2023/03/23 03:56:32;;;;;;;1.50;1.40;;;16.80;63.90;18.10;99599.00;;;;5012475;28;20327;-48
2023/03/23 03:58:59;;;;;;;1.40;1.30;;;16.80;64.00;18.10;99603.00;;;;5012419;28;20707;-48
2023/03/23 04:01:25;;;;;;;1.23;1.20;;;16.90;64.10;18.10;99604.00;;;;5012130;28;20215;-47
2023/03/23 04:03:50;;;;;;;1.37;1.33;;;16.80;64.00;18.10;99584.00;;;;5012145;28;20171;-47
2023/03/23 04:06:17;;;;;;;1.67;1.50;;;16.90;64.10;18.10;99590.00;;;;5012396;28;20197;-47
2023/03/23 04:08:42;;;;;;;1.50;1.40;;;16.80;64.00;18.10;99577.00;;;;5011851;28;20798;-47
2023/03/23 04:11:09;;;;;;;1.70;1.60;;;16.80;64.00;18.10;99578.00;;;;5010750;28;20292;-47
2023/03/23 04:13:34;;;;;;;1.50;1.40;;;16.80;64.10;18.10;99575.00;;;;5011773;28;20800;-47
2023/03/23 04:16:00;;;;;;;1.30;1.20;;;16.90;64.30;18.00;99585.00;;;;5013059;28;20179;-49
2023/03/23 04:18:26;;;;;;;1.43;1.33;;;16.90;64.30;18.10;99587.00;;;;5012518;28;20187;-48
2023/03/23 04:20:52;;;;;;;2.07;1.70;;;16.80;64.30;18.10;99584.00;;;;5016201;28;20219;-48
2023/03/23 04:23:22;;;;;;;1.93;1.60;;;16.80;64.50;18.00;99585.00;;;;5017767;28;20184;-47
2023/03/23 04:25:49;;;;;;;1.57;1.47;;;16.80;64.50;18.00;99579.00;;;;5018172;28;20202;-47
2023/03/23 04:28:18;;;;;;;2.37;1.40;;;16.80;64.40;18.00;99584.00;;;;5013553;28;20210;-48
2023/03/23 04:30:44;;;;;;;1.50;1.30;;;16.80;64.50;18.00;99598.00;;;;5011698;28;20678;-51
2023/03/23 04:33:14;;;;;;;1.60;1.50;;;16.90;64.70;18.00;99583.00;;;;5011373;28;20183;-47
2023/03/23 04:35:45;;;;;;;3.07;1.50;;;16.80;64.40;18.10;99593.00;;;;5008711;28;20191;-48
2023/03/23 04:38:13;;;;;;;2.03;1.60;;;16.80;64.50;18.00;99534.00;;;;5005828;28;20188;-47
2023/03/23 04:40:39;;;;;;;2.57;1.50;;;16.80;64.40;18.10;99593.00;;;;5010016;28;20292;-48
2023/03/23 04:43:05;;;;;;;1.57;1.40;;;16.90;64.60;18.00;99592.00;;;;5010661;28;20646;-48
2023/03/23 04:45:33;;;;;;;2.33;1.50;;;16.90;64.50;18.00;99587.00;;;;5011615;28;20558;-48
2023/03/23 04:47:58;;;;;;;1.80;1.60;;;16.80;64.40;18.00;99593.00;;;;5012235;28;20180;-48
2023/03/23 04:50:30;;;;;;;1.83;1.60;;;16.80;64.40;18.00;99589.00;;;;5011926;28;20214;-48
2023/03/23 04:52:57;;;;;;;4.73;1.63;;;16.80;64.30;18.00;99590.00;;;;5010953;28;20269;-48
2023/03/23 04:55:23;;;;;;;1.27;1.17;;;16.80;64.20;18.00;99590.00;;;;5011861;28;20184;-48
2023/03/23 04:57:49;;;;;;;2.03;1.63;;;16.80;64.30;18.00;99601.00;;;;5010609;28;20179;-48
2023/03/23 05:00:16;;;;;;;1.70;1.60;;;16.80;64.20;18.00;99598.00;;;;5010918;28;20217;-47
2023/03/23 05:02:43;;;;;;;1.53;1.43;;;16.70;64.10;18.00;99601.00;;;;5011287;28;20244;-49
2023/03/23 05:05:10;;;;;;;1.03;1.03;;;16.80;64.20;18.00;99595.00;;;;5011630;28;20203;-47
2023/03/23 05:07:40;;;;;;;1.90;1.33;;;16.70;64.00;18.00;99594.00;;;;5010286;28;20684;-48
2023/03/23 05:10:08;;;;;;;1.17;1.07;;;16.70;64.00;18.00;99604.00;;;;5010995;28;20205;-47
2023/03/23 05:12:34;;;;;;;1.17;1.07;;;16.80;64.10;18.00;99607.00;;;;5011133;28;20745;-47
2023/03/23 05:14:59;;;;;;;1.60;1.50;;;16.70;64.00;17.90;99602.00;;;;5010205;28;20183;-47
2023/03/23 05:17:26;;;;;;;2.60;1.60;;;16.70;63.90;18.00;99604.00;;;;5015065;28;20210;-47
2023/03/23 05:19:51;;;;;;;2.00;1.47;;;16.70;64.00;18.00;99607.00;;;;5017145;28;20196;-47
2023/03/23 05:22:20;;;;;;;2.07;1.50;;;16.80;64.10;18.00;99612.00;;;;5014402;28;20248;-47
2023/03/23 05:24:47;;;;;;;2.17;1.50;;;16.70;64.10;17.90;99612.00;;;;5011859;28;20689;-47
2023/03/23 05:27:14;;;;;;;1.70;1.40;;;16.70;64.10;17.90;99545.00;;;;5011513;28;20639;-46
2023/03/23 05:29:40;;;;;;;3.17;1.60;;;16.70;64.00;17.90;99607.00;;;;5010459;28;20211;-47
2023/03/23 05:32:07;;;;;;;1.83;1.33;;;16.70;64.00;17.90;99603.00;;;;5010845;28;20199;-48
2023/03/23 05:34:36;;;;;;;5.73;1.60;;;16.70;64.10;17.90;99624.00;;;;5011372;28;20207;-47
2023/03/23 05:37:02;;;;;;;4.83;1.63;;;16.70;64.20;17.90;99617.00;;;;5009894;28;20185;-49
2023/03/23 05:39:29;;;;;;;4.33;1.67;;;16.70;64.30;17.90;99622.00;;;;5010656;28;20205;-47
2023/03/23 05:41:55;;;;;;;3.90;1.60;;;16.70;64.40;17.90;99613.00;;;;5010673;28;20205;-47
2023/03/23 05:44:21;;;;;;;6.30;1.80;;;16.70;64.30;17.90;99619.00;;;;5011130;28;20549;-47
2023/03/23 05:46:47;;;;;;;5.57;1.57;;;16.70;64.30;17.90;99617.00;;;;5010977;28;20184;-49
2023/03/23 05:49:16;;;;;;;3.70;1.50;;;16.70;64.30;17.90;99621.00;;;;5009857;28;20551;-48
2023/03/23 05:51:43;;;;;;;4.70;1.77;;;16.70;64.40;17.90;99620.00;;;;5008699;28;20178;-48
2023/03/23 05:54:10;;;;;;;2.37;1.40;;;16.70;64.40;17.90;99618.00;;;;5009981;28;20719;-48
2023/03/23 05:56:36;;;;;;;3.27;1.60;;;16.70;64.30;17.90;99617.00;;;;5008098;28;20184;-48
2023/03/23 05:59:02;;;;;;;4.33;1.60;;;16.70;64.40;17.90;99628.00;;;;5010365;28;20184;-48
2023/03/23 06:01:28;;;;;;;5.00;1.60;;;16.60;64.50;17.90;99612.00;;;;5010444;28;20210;-48
2023/03/23 06:03:58;;;;;;;3.60;1.50;;;16.60;64.50;17.90;99621.00;;;;5009321;28;20168;-48
2023/03/23 06:06:29;;;;;;;4.23;1.50;;;16.60;64.50;17.90;99627.00;;;;5009191;28;20271;-47
2023/03/23 06:08:55;;;;;;;4.30;1.77;;;16.70;64.50;17.90;99615.00;;;;5010618;28;20186;-47
2023/03/23 06:11:21;;;;;;;2.80;1.70;;;16.60;64.50;17.90;99629.00;;;;5010644;28;20813;-48
2023/03/23 06:13:47;;;;;;;3.17;1.60;;;16.60;64.40;17.90;99628.00;;;;5010600;28;20184;-48
2023/03/23 06:16:14;;;;;;;2.33;1.47;;;16.60;64.40;17.90;99641.00;;;;5010603;28;20231;-48
2023/03/23 06:18:40;;;;;;;1.57;1.43;;;16.70;64.50;17.80;99640.00;;;;5009791;28;20564;-48
2023/03/23 06:21:07;;;;;;;2.87;1.70;;;16.70;64.40;17.80;99645.00;;;;5009521;28;20793;-48
2023/03/23 06:23:34;;;;;;;2.23;1.70;;;16.60;64.30;17.80;99647.00;;;;5009897;28;20200;-48
2023/03/23 06:26:05;;;;;;;1.60;1.50;;;16.60;64.30;17.80;99654.00;;;;5010193;28;20660;-47
2023/03/23 06:28:31;;;;;;;3.10;1.50;;;16.60;64.30;17.80;99651.00;;;;5009667;28;20255;-48
2023/03/23 06:31:05;;;;;;;2.43;1.40;;;16.60;64.30;17.80;99658.00;;;;5009344;28;20204;-47
2023/03/23 06:33:33;;;;;;;1.90;1.40;;;16.60;64.30;17.80;99655.00;;;;5010051;28;20174;-48
2023/03/23 06:35:59;;;;;;;3.60;1.70;;;16.60;64.30;17.80;99658.00;;;;5008556;28;20179;-49
2023/03/23 06:38:26;;;;;;;1.83;1.50;;;16.60;64.20;17.80;99649.00;;;;5009168;28;20203;-48
2023/03/23 06:40:53;;;;;;;1.60;1.50;;;16.60;64.20;17.80;99662.00;;;;5009955;28;20215;-48
2023/03/23 06:43:18;;;;;;;1.40;1.30;;;16.60;64.30;17.80;99656.00;;;;5009408;28;20185;-47
2023/03/23 06:45:44;;;;;;;1.70;1.60;;;16.60;64.20;17.80;99659.00;;;;5010124;28;20561;-48
2023/03/23 06:48:10;;;;;;;1.40;1.30;;;16.60;64.20;17.80;99669.00;;;;5009615;28;20687;-48
2023/03/23 06:50:36;;;;;;;1.63;1.53;;;16.60;64.20;17.80;99659.00;;;;5009084;28;20290;-48
2023/03/23 06:53:01;;;;;;;3.70;1.80;;;16.60;64.20;17.80;99660.00;;;;5007256;28;20187;-48
2023/03/23 06:55:27;;;;;;;1.70;1.60;;;16.60;64.20;17.80;99647.00;;;;5009567;28;20693;-48
2023/03/23 06:57:53;;;;;;;1.47;1.17;;;16.60;64.20;17.80;99656.00;;;;5008347;28;20185;-48
2023/03/23 07:00:19;;;;;;;1.60;1.50;;;16.60;64.20;17.80;99653.00;;;;5007745;28;20271;-48
2023/03/23 07:02:44;;;;;;;2.13;1.70;;;16.60;64.20;17.80;99665.00;;;;5009538;28;20175;-48
2023/03/23 07:05:10;;;;;;;2.07;1.40;;;16.60;64.30;17.80;99679.00;;;;5009397;28;20173;-48
2023/03/23 07:07:40;;;;;;;2.50;1.53;;;16.60;64.30;17.80;99682.00;;;;5008255;28;20267;-47
2023/03/23 07:10:11;;;;;;;2.57;1.60;;;16.50;64.20;17.80;99674.00;;;;5009017;28;20224;-48
2023/03/23 07:12:37;;;;;;;2.63;1.70;;;16.50;64.20;17.70;99669.00;;;;5009018;28;20188;-48
2023/03/23 07:15:04;;;;;;;1.70;1.60;;;16.60;64.30;17.80;99677.00;;;;5008384;28;20195;-48
2023/03/23 07:17:30;;;;;;;1.60;1.50;;;16.50;64.20;17.70;99661.00;;;;5009661;28;20180;-45
2023/03/23 07:19:56;;;;;;;4.20;1.70;;;16.50;64.30;17.70;99676.00;;;;5008575;28;20217;-46
2023/03/23 07:22:21;;;;;;;1.90;1.50;;;16.50;64.40;17.70;99671.00;;;;5010042;28;20255;-46
2023/03/23 07:24:47;;;;;;;1.70;1.60;;;16.60;64.70;17.80;99673.00;;;;5011947;28;20201;-46
2023/03/23 07:27:13;;;;;;;4.37;1.60;;;16.60;64.60;17.70;99661.00;;;;5013457;28;20179;-46
2023/03/23 07:29:39;;;;;;;2.87;1.70;;;16.60;64.60;17.70;99671.00;;;;5013004;28;20203;-45
2023/03/23 07:32:06;;;;;;;1.70;1.60;;;16.50;64.60;17.70;99666.00;;;;5013332;28;20186;-46
2023/03/23 07:34:32;;;;;;;1.50;1.40;;;16.60;64.60;17.70;99675.00;;;;5013548;28;20181;-46
2023/03/23 07:36:58;;;;;;;2.23;1.63;;;16.50;64.50;17.70;99670.00;;;;5013436;28;20665;-47
2023/03/23 07:39:25;;;;;;;1.60;1.50;;;16.50;64.60;17.70;99670.00;;;;5012591;28;20258;-46
2023/03/23 07:41:50;;;;;;;1.70;1.60;;;16.50;64.50;17.70;99662.00;;;;5013316;28;20173;-46
2023/03/23 07:44:16;;;;;;;1.80;1.70;;;16.50;64.50;17.70;99671.00;;;;5013426;28;20194;-46
2023/03/23 07:46:42;;;;;;;1.83;1.50;;;16.50;64.50;17.70;99667.00;;;;5012065;28;20203;-49
2023/03/23 07:49:08;;;;;;;1.60;1.50;;;16.50;64.40;17.70;99656.00;;;;5013104;28;20212;-47
2023/03/23 07:51:34;;;;;;;3.07;1.70;;;16.50;64.50;17.70;99662.00;;;;5012666;28;20274;-45
2023/03/23 07:54:02;;;;;;;1.70;1.60;;;16.50;64.50;17.70;99672.00;;;;5010819;28;20180;-46
2023/03/23 07:56:28;;;;;;;2.77;1.63;;;16.60;64.60;17.70;99665.00;;;;5011858;28;20203;-45
2023/03/23 07:58:54;;;;;;;2.07;1.60;;;16.60;64.50;17.70;99666.00;;;;5012760;28;20185;-45
2023/03/23 08:01:20;;;;;;;1.73;1.50;;;16.70;64.50;17.80;99660.00;;;;5012224;28;20215;-47
2023/03/23 08:03:46;;;;;;;1.50;1.40;;;16.70;64.50;17.80;99669.00;;;;5012378;28;20722;-47
2023/03/23 08:06:12;;;;;;;2.37;1.60;;;16.80;64.60;17.80;99673.00;;;;5012357;28;20172;-46
2023/03/23 08:08:40;;;;;;;1.60;1.50;;;16.80;64.60;17.90;99669.00;;;;5012133;28;20706;-48
2023/03/23 08:11:06;;;;;;;2.17;1.60;;;16.90;64.60;17.90;99672.00;;;;5012458;28;20204;-47
2023/03/23 08:13:33;;;;;;;1.90;1.70;;;17.00;64.60;18.00;99668.00;;;;5012309;28;20647;-46
2023/03/23 08:16:00;;;;;;;1.77;1.60;;;17.00;64.50;18.00;99671.00;;;;5012514;28;20666;-46
2023/03/23 08:18:26;;;;;;;1.97;1.47;;;17.10;64.60;18.00;99670.00;;;;5012669;28;20191;-45
2023/03/23 08:20:53;;;;;;;1.50;1.30;;;17.10;64.60;18.10;99671.00;;;;5011659;28;20564;-47
2023/03/23 08:23:20;;;;;;;1.60;1.50;;;17.20;64.70;18.10;99680.00;;;;5012181;28;20189;-47
2023/03/23 08:25:46;;;;;;;1.70;1.60;;;17.20;64.60;18.20;99677.00;;;;5012736;28;20188;-46
2023/03/23 08:28:13;;;;;;;1.57;1.47;;;17.20;64.60;18.20;99672.00;;;;5012344;28;20206;-48
2023/03/23 08:30:39;;;;;;;1.93;1.47;;;17.30;64.70;18.20;99673.00;;;;5014487;28;20206;-45
2023/03/23 08:33:05;;;;;;;1.63;1.30;;;17.30;64.70;18.20;99681.00;;;;5015717;28;20535;-46
2023/03/23 08:35:31;;;;;;;1.70;1.60;;;17.30;64.70;18.30;99682.00;;;;5016244;28;20189;-46
2023/03/23 08:37:57;;;;;;;1.63;1.40;;;17.30;64.90;18.30;99686.00;;;;5013469;28;20184;-46
2023/03/23 08:40:23;;;;;;;2.00;1.60;;;17.30;64.70;18.30;99678.00;;;;5011859;28;20643;-46
2023/03/23 08:42:50;;;;;;;1.50;1.40;;;17.30;64.70;18.40;99674.00;;;;5011907;28;20175;-47
2023/03/23 08:45:20;;;;;;;1.77;1.67;;;17.40;64.80;18.40;99683.00;;;;5012132;28;20187;-46
2023/03/23 08:47:51;;;;;;;1.50;1.40;;;17.40;64.80;18.40;99673.00;;;;5011847;28;20196;-46
2023/03/23 08:50:19;;;;;;;1.60;1.50;;;17.40;64.70;18.40;99688.00;;;;5011092;28;20220;-45
2023/03/23 08:52:45;;;;;;;1.57;1.43;;;17.40;64.70;18.40;99685.00;;;;5010662;28;20198;-46
2023/03/23 08:55:11;;;;;;;1.60;1.50;;;17.40;64.70;18.40;99683.00;;;;5015314;28;20184;-46
2023/03/23 08:57:37;;;;;;;1.30;1.20;;;17.50;64.80;18.50;99699.00;;;;5013080;28;20269;-46
2023/03/23 09:00:15;;;;;;;1.80;1.70;;;17.50;64.80;18.50;99705.00;;;;5011837;28;20210;-46
2023/03/23 09:02:42;;;;;;;1.53;1.40;;;17.50;64.90;18.50;99704.00;;;;5011295;28;20741;-47
2023/03/23 09:05:10;;;;;;;1.50;1.40;;;17.50;64.90;18.50;99700.00;;;;5010856;28;20179;-46
2023/03/23 09:07:38;;;;;;;1.47;1.37;;;17.50;64.90;18.50;99720.00;;;;5011911;28;20185;-46
2023/03/23 09:10:04;;;;;;;1.33;1.23;;;17.50;64.80;18.50;99722.00;;;;5010952;28;20203;-46
2023/03/23 09:12:30;;;;;;;1.30;1.20;;;17.50;64.80;18.60;99708.00;;;;5010752;28;20190;-46
2023/03/23 09:14:56;;;;;;;1.57;1.47;;;17.50;64.80;18.60;99711.00;;;;5011712;28;20175;-46
2023/03/23 09:17:22;;;;;;;1.40;1.30;;;17.50;64.80;18.60;99711.00;;;;5009643;28;20194;-45
2023/03/23 09:19:48;;;;;;;1.20;1.10;;;17.60;64.80;18.60;99718.00;;;;5007797;28;20298;-46
2023/03/23 09:22:15;;;;;;;1.30;1.30;;;17.60;64.90;18.60;99713.00;;;;5008889;28;20187;-46
2023/03/23 09:24:41;;;;;;;1.50;1.40;;;17.60;64.90;18.40;99706.00;;;;5011449;28;20195;-46
2023/03/23 09:27:07;;;;;;;1.40;1.30;;;17.60;64.80;18.60;99716.00;;;;5012494;28;20179;-46
2023/03/23 09:29:32;;;;;;;1.40;1.30;;;17.60;65.70;18.60;99718.00;;;;4999045;28;20200;-45
2023/03/23 09:32:00;;;;;;;1.50;1.40;;;17.60;65.60;18.70;99709.00;;;;5009902;28;20214;-45
2023/03/23 09:34:25;;;;;;;3.33;1.60;;;17.60;64.90;18.70;99721.00;;;;5003580;28;20235;-47
2023/03/23 09:36:51;;;;;;;1.50;1.40;;;17.60;64.90;18.70;99710.00;;;;5004999;28;20262;-47
2023/03/23 09:39:18;;;;;;;2.07;1.60;;;17.60;64.90;18.70;99721.00;;;;5007450;28;20184;-46
2023/03/23 09:42:36;;;;;;;2.20;1.43;;;17.70;65.10;18.70;99727.00;;;;5008471;28;20182;-45
2023/03/23 09:45:39;;;;;;;3.30;1.60;;;17.80;65.10;18.80;99752.00;;;;5007057;28;20188;-45
2023/03/23 09:48:25;;;;;;;4.40;1.70;;;17.80;65.20;18.80;99732.00;;;;5010010;28;20669;-45
2023/03/23 09:51:00;;;;;;;2.33;1.23;;;17.80;65.10;18.80;99727.00;;;;5009674;28;20462;-45
2023/03/23 09:53:34;;;;;;;2.47;1.50;;;17.90;65.10;18.80;99726.00;;;;5009846;28;20183;-47
2023/03/23 09:56:02;;;;;;;1.70;1.47;;;17.90;65.10;18.70;99736.00;;;;5009639;28;20653;-45
2023/03/23 09:58:35;;;;;;;2.17;1.60;;;17.90;65.10;18.90;99734.00;;;;5009601;28;20324;-46
2023/03/23 10:01:32;;;;;;;2.07;1.60;;;17.90;65.00;18.90;99712.00;;;;5009239;28;20204;-46
2023/03/23 10:04:46;;;;;;;5.10;1.80;;;17.90;64.90;18.90;99717.00;;;;5009417;28;20746;-46
2023/03/23 10:07:18;;;;;;;3.67;1.80;;;17.90;64.70;18.90;99726.00;;;;5010402;28;20654;-45
2023/03/23 10:09:59;;;;;;;3.27;1.47;;;18.00;64.70;18.90;99716.00;;;;5009374;28;20191;-46
2023/03/23 10:12:38;;;;;;;3.93;1.87;;;18.00;64.80;18.90;99712.00;;;;5008896;28;20277;-45
2023/03/23 10:15:24;;;;;;;3.13;1.80;;;18.00;64.90;18.90;99717.00;;;;5002905;28;20211;-45
2023/03/23 10:17:57;;;;;;;3.57;1.90;;;18.00;65.10;19.00;99713.00;;;;5003795;28;20174;-45
2023/03/23 10:20:53;;;;;;;1.90;1.50;;;18.00;65.20;19.00;99727.00;;;;5001499;28;20212;-45
2023/03/23 10:23:19;;;;;;;5.77;1.60;;;18.00;65.20;19.00;99730.00;;;;5008750;28;20183;-45
2023/03/23 10:26:12;;;;;;;5.57;1.80;;;18.00;65.70;19.00;99729.00;;;;5009789;28;20186;-44
2023/03/23 10:28:52;;;;;;;4.60;1.60;;;18.00;66.30;19.00;99723.00;;;;5007749;28;20214;-45
2023/03/23 10:31:35;;;;;;;3.87;1.80;;;18.00;66.20;19.00;99724.00;;;;5005508;28;20206;-45
2023/03/23 10:34:39;;;;;;;6.90;1.87;;;18.00;66.00;19.00;99719.00;;;;5008293;28;20171;-46
2023/03/23 10:37:21;;;;;;;3.43;1.73;;;18.00;66.00;19.00;99724.00;;;;5008773;28;20183;-46
2023/03/23 10:39:54;;;;;;;4.17;1.87;;;18.00;65.60;19.00;99722.00;;;;5008185;28;20196;-45
2023/03/23 10:42:47;;;;;;;2.87;1.70;;;18.10;65.70;19.00;99728.00;;;;5009698;28;20175;-45
2023/03/23 10:45:21;;;;;;;4.20;1.60;;;18.10;65.60;19.00;99723.00;;;;5009911;28;20190;-48
2023/03/23 10:48:11;;;;;;;2.87;1.63;;;18.10;65.50;19.00;99725.00;;;;4991460;28;20548;-45
2023/03/23 10:50:37;;;;;;;2.73;1.47;;;18.00;66.20;19.00;99741.00;;;;5008639;28;20779;-45
2023/03/23 10:53:15;;;;;;;1.67;1.40;;;18.10;65.40;19.10;99744.00;;;;5009563;28;20172;-45
2023/03/23 10:55:43;;;;;;;3.90;1.63;;;18.00;65.40;19.00;99749.00;;;;5007894;28;20182;-45
2023/03/23 10:58:29;;;;;;;1.93;1.53;;;18.00;65.40;19.10;99741.00;;;;5009519;28;20211;-46
2023/03/23 11:00:55;;;;;;;2.50;1.70;;;18.10;65.40;19.00;99748.00;;;;5009259;28;20226;-45
2023/03/23 11:03:40;;;;;;;3.57;1.70;;;18.00;65.40;19.00;99750.00;;;;5010091;28;20214;-45
2023/03/23 11:06:23;;;;;;;3.30;1.30;;;18.00;65.40;19.10;99769.00;;;;5008370;28;20178;-45